sensor_id;sensor_type;location;lat;lon;timestamp;pressure;altitude;pressure_sealevel;temperature;humidity
39267;BME280;24967;51.154;13.812;2023-06-19T00:00:41;99294.41;;;18.50;66.24
39267;BME280;24967;51.154;13.812;2023-06-19T00:03:07;99288.00;;;18.51;66.18
39267;BME280;24967;51.154;13.812;2023-06-19T00:05:34;99296.06;;;18.58;65.99
39267;BME280;24967;51.154;13.812;2023-06-19T00:08:00;99292.53;;;18.50;66.12
39267;BME280;24967;51.154;13.812;2023-06-19T00:10:30;99296.91;;;18.45;66.37
39267;BME280;24967;51.154;13.812;2023-06-19T00:12:56;99291.72;;;18.43;66.21
39267;BME280;24967;51.154;13.812;2023-06-19T00:15:22;99288.81;;;18.38;66.21
39267;BME280;24967;51.154;13.812;2023-06-19T00:17:49;99285.91;;;18.33;66.23
39267;BME280;24967;51.154;13.812;2023-06-19T00:20:15;99291.72;;;18.30;66.63
39267;BME280;24967;51.154;13.812;2023-06-19T00:22:43;99290.25;;;18.27;66.48
39267;BME280;24967;51.154;13.812;2023-06-19T00:25:09;99284.69;;;18.29;66.40
39267;BME280;24967;51.154;13.812;2023-06-19T00:27:37;99281.59;;;18.25;66.61
39267;BME280;24967;51.154;13.812;2023-06-19T00:30:05;99284.06;;;18.27;66.41
39267;BME280;24967;51.154;13.812;2023-06-19T00:32:33;99291.72;;;18.23;66.34
39267;BME280;24967;51.154;13.812;2023-06-19T00:35:12;99293.16;;;18.19;66.03
39267;BME280;24967;51.154;13.812;2023-06-19T00:37:38;99292.31;;;18.12;66.27
39267;BME280;24967;51.154;13.812;2023-06-19T00:40:07;99290.25;;;18.07;66.41
39267;BME280;24967;51.154;13.812;2023-06-19T00:42:34;99287.16;;;18.04;66.38
39267;BME280;24967;51.154;13.812;2023-06-19T00:45:02;99290.03;;;18.02;66.65
39267;BME280;24967;51.154;13.812;2023-06-19T00:47:28;99287.75;;;17.99;66.71
39267;BME280;24967;51.154;13.812;2023-06-19T00:49:55;99293.97;;;18.00;66.72
39267;BME280;24967;51.154;13.812;2023-06-19T00:52:21;99298.09;;;18.02;66.75
39267;BME280;24967;51.154;13.812;2023-06-19T00:54:48;99292.53;;;17.97;66.40
39267;BME280;24967;51.154;13.812;2023-06-19T00:57:14;99291.91;;;17.95;66.13
39267;BME280;24967;51.154;13.812;2023-06-19T00:59:41;99287.75;;;17.93;66.03
39267;BME280;24967;51.154;13.812;2023-06-19T01:02:09;99285.66;;;17.88;65.82
39267;BME280;24967;51.154;13.812;2023-06-19T01:04:36;99285.47;;;17.83;66.03
39267;BME280;24967;51.154;13.812;2023-06-19T01:07:07;99273.44;;;17.79;66.36
39267;BME280;24967;51.154;13.812;2023-06-19T01:09:38;99276.50;;;17.76;66.80
39267;BME280;24967;51.154;13.812;2023-06-19T01:12:12;99279.19;;;17.76;67.13
39267;BME280;24967;51.154;13.812;2023-06-19T01:14:46;99272.81;;;17.77;67.37
39267;BME280;24967;51.154;13.812;2023-06-19T01:17:17;99275.69;;;17.75;67.52
39267;BME280;24967;51.154;13.812;2023-06-19T01:19:44;99278.38;;;17.75;67.63
39267;BME280;24967;51.154;13.812;2023-06-19T01:22:22;99274.50;;;17.78;67.77
39267;BME280;24967;51.154;13.812;2023-06-19T01:24:49;99269.94;;;17.85;67.79
39267;BME280;24967;51.154;13.812;2023-06-19T01:27:15;99269.28;;;17.76;68.13
39267;BME280;24967;51.154;13.812;2023-06-19T01:29:41;99261.22;;;17.76;68.11
39267;BME280;24967;51.154;13.812;2023-06-19T01:32:11;99265.75;;;17.76;68.18
39267;BME280;24967;51.154;13.812;2023-06-19T01:34:39;99256.03;;;17.68;68.81
39267;BME280;24967;51.154;13.812;2023-06-19T01:37:06;99253.75;;;17.65;69.13
39267;BME280;24967;51.154;13.812;2023-06-19T01:39:35;99251.47;;;17.69;69.39
39267;BME280;24967;51.154;13.812;2023-06-19T01:42:04;99255.00;;;17.76;68.94
39267;BME280;24967;51.154;13.812;2023-06-19T01:44:31;99252.78;;;17.79;68.56
39267;BME280;24967;51.154;13.812;2023-06-19T01:46:57;99253.81;;;17.85;68.33
39267;BME280;24967;51.154;13.812;2023-06-19T01:49:23;99252.38;;;17.82;68.36
39267;BME280;24967;51.154;13.812;2023-06-19T01:51:50;99246.16;;;17.82;68.41
39267;BME280;24967;51.154;13.812;2023-06-19T01:54:17;99238.72;;;17.84;68.35
39267;BME280;24967;51.154;13.812;2023-06-19T01:56:44;99244.72;;;17.86;68.38
39267;BME280;24967;51.154;13.812;2023-06-19T01:59:11;99239.94;;;17.88;68.26
39267;BME280;24967;51.154;13.812;2023-06-19T02:01:37;99240.16;;;17.87;68.25
39267;BME280;24967;51.154;13.812;2023-06-19T02:04:04;99232.53;;;17.83;68.18
39267;BME280;24967;51.154;13.812;2023-06-19T02:06:30;99238.09;;;17.82;68.23
39267;BME280;24967;51.154;13.812;2023-06-19T02:08:57;99235.63;;;17.80;68.26
39267;BME280;24967;51.154;13.812;2023-06-19T02:11:23;99237.47;;;17.80;68.09
39267;BME280;24967;51.154;13.812;2023-06-19T02:13:51;99236.41;;;17.74;68.05
39267;BME280;24967;51.154;13.812;2023-06-19T02:16:17;99238.25;;;17.74;68.09
39267;BME280;24967;51.154;13.812;2023-06-19T02:18:44;99227.69;;;17.72;68.16
39267;BME280;24967;51.154;13.812;2023-06-19T02:21:10;99231.22;;;17.73;68.33
39267;BME280;24967;51.154;13.812;2023-06-19T02:23:37;99226.25;;;17.70;68.20
39267;BME280;24967;51.154;13.812;2023-06-19T02:26:03;99232.25;;;17.65;68.49
39267;BME280;24967;51.154;13.812;2023-06-19T02:28:30;99233.47;;;17.62;68.51
39267;BME280;24967;51.154;13.812;2023-06-19T02:30:58;99229.97;;;17.55;69.09
39267;BME280;24967;51.154;13.812;2023-06-19T02:33:24;99230.16;;;17.60;68.93
39267;BME280;24967;51.154;13.812;2023-06-19T02:35:50;99227.69;;;17.66;68.88
39267;BME280;24967;51.154;13.812;2023-06-19T02:38:17;99224.59;;;17.69;68.71
39267;BME280;24967;51.154;13.812;2023-06-19T02:40:46;99229.34;;;17.67;68.70
39267;BME280;24967;51.154;13.812;2023-06-19T02:43:12;99230.59;;;17.64;68.52
39267;BME280;24967;51.154;13.812;2023-06-19T02:45:39;99226.66;;;17.60;68.88
39267;BME280;24967;51.154;13.812;2023-06-19T02:48:07;99226.88;;;17.58;69.01
39267;BME280;24967;51.154;13.812;2023-06-19T02:50:33;99227.28;;;17.62;68.97
39267;BME280;24967;51.154;13.812;2023-06-19T02:53:00;99223.78;;;17.61;68.88
39267;BME280;24967;51.154;13.812;2023-06-19T02:55:26;99220.03;;;17.62;68.91
39267;BME280;24967;51.154;13.812;2023-06-19T02:57:52;99223.78;;;17.61;68.87
39267;BME280;24967;51.154;13.812;2023-06-19T03:00:19;99220.44;;;17.59;68.86
39267;BME280;24967;51.154;13.812;2023-06-19T03:02:46;99216.13;;;17.58;69.00
39267;BME280;24967;51.154;13.812;2023-06-19T03:05:15;99221.03;;;17.55;69.33
39267;BME280;24967;51.154;13.812;2023-06-19T03:07:41;99217.97;;;17.58;69.32
39267;BME280;24967;51.154;13.812;2023-06-19T03:10:08;99214.44;;;17.57;69.41
39267;BME280;24967;51.154;13.812;2023-06-19T03:12:35;99217.13;;;17.57;69.79
39267;BME280;24967;51.154;13.812;2023-06-19T03:15:01;99218.59;;;17.60;69.97
39267;BME280;24967;51.154;13.812;2023-06-19T03:17:28;99211.97;;;17.62;69.86
39267;BME280;24967;51.154;13.812;2023-06-19T03:19:54;99210.34;;;17.61;70.21
39267;BME280;24967;51.154;13.812;2023-06-19T03:22:23;99208.88;;;17.52;71.09
39267;BME280;24967;51.154;13.812;2023-06-19T03:24:49;99204.91;;;17.42;72.16
39267;BME280;24967;51.154;13.812;2023-06-19T03:27:17;99203.66;;;17.44;72.39
39267;BME280;24967;51.154;13.812;2023-06-19T03:29:43;99203.03;;;17.49;72.45
39267;BME280;24967;51.154;13.812;2023-06-19T03:32:10;99222.50;;;17.57;72.20
39267;BME280;24967;51.154;13.812;2023-06-19T03:34:36;99220.47;;;17.66;72.01
39267;BME280;24967;51.154;13.812;2023-06-19T03:37:03;99217.34;;;17.69;71.88
39267;BME280;24967;51.154;13.812;2023-06-19T03:39:30;99218.00;;;17.71;72.10
39267;BME280;24967;51.154;13.812;2023-06-19T03:41:57;99224.03;;;17.80;71.40
39267;BME280;24967;51.154;13.812;2023-06-19T03:44:23;99215.97;;;17.80;71.53
39267;BME280;24967;51.154;13.812;2023-06-19T03:46:50;99214.94;;;17.88;70.95
39267;BME280;24967;51.154;13.812;2023-06-19T03:49:16;99211.63;;;17.99;70.79
39267;BME280;24967;51.154;13.812;2023-06-19T03:51:43;99218.47;;;18.08;70.82
39267;BME280;24967;51.154;13.812;2023-06-19T03:54:09;99214.31;;;18.05;71.13
39267;BME280;24967;51.154;13.812;2023-06-19T03:56:37;99217.63;;;18.07;71.65
39267;BME280;24967;51.154;13.812;2023-06-19T03:59:04;99213.31;;;18.06;72.27
39267;BME280;24967;51.154;13.812;2023-06-19T04:01:30;99208.94;;;18.12;72.28
39267;BME280;24967;51.154;13.812;2023-06-19T04:03:57;99217.44;;;18.16;72.22
39267;BME280;24967;51.154;13.812;2023-06-19T04:06:24;99222.38;;;18.32;71.53
39267;BME280;24967;51.154;13.812;2023-06-19T04:08:51;99222.38;;;18.39;71.49
39267;BME280;24967;51.154;13.812;2023-06-19T04:11:18;99219.66;;;18.45;71.10
39267;BME280;24967;51.154;13.812;2023-06-19T04:13:47;99225.47;;;18.42;70.75
39267;BME280;24967;51.154;13.812;2023-06-19T04:16:13;99223.38;;;18.51;70.36
39267;BME280;24967;51.154;13.812;2023-06-19T04:18:39;99212.00;;;18.42;70.24
39267;BME280;24967;51.154;13.812;2023-06-19T04:21:06;99213.47;;;18.58;69.81
39267;BME280;24967;51.154;13.812;2023-06-19T04:23:32;99207.00;;;18.66;69.15
39267;BME280;24967;51.154;13.812;2023-06-19T04:25:59;99210.53;;;18.66;69.39
39267;BME280;24967;51.154;13.812;2023-06-19T04:28:25;99211.34;;;18.80;69.08
39267;BME280;24967;51.154;13.812;2023-06-19T04:30:53;99221.50;;;18.78;69.16
39267;BME280;24967;51.154;13.812;2023-06-19T04:33:26;99229.53;;;18.98;68.82
39267;BME280;24967;51.154;13.812;2023-06-19T04:35:52;99228.88;;;19.09;68.88
39267;BME280;24967;51.154;13.812;2023-06-19T04:38:18;99225.34;;;19.15;68.82
39267;BME280;24967;51.154;13.812;2023-06-19T04:40:48;99226.31;;;19.21;69.18
39267;BME280;24967;51.154;13.812;2023-06-19T04:43:15;99219.81;;;19.35;68.86
39267;BME280;24967;51.154;13.812;2023-06-19T04:45:42;99222.28;;;19.43;68.58
39267;BME280;24967;51.154;13.812;2023-06-19T04:48:09;99230.94;;;19.52;68.53
39267;BME280;24967;51.154;13.812;2023-06-19T04:50:36;99222.84;;;19.52;68.31
39267;BME280;24967;51.154;13.812;2023-06-19T04:53:03;99227.38;;;19.65;67.93
39267;BME280;24967;51.154;13.812;2023-06-19T04:55:29;99222.16;;;19.63;68.14
39267;BME280;24967;51.154;13.812;2023-06-19T04:57:56;99219.63;;;19.75;67.79
39267;BME280;24967;51.154;13.812;2023-06-19T05:00:22;99222.81;;;19.90;67.37
39267;BME280;24967;51.154;13.812;2023-06-19T05:02:49;99209.75;;;19.94;67.51
39267;BME280;24967;51.154;13.812;2023-06-19T05:05:17;99217.94;;;20.06;67.06
39267;BME280;24967;51.154;13.812;2023-06-19T05:07:44;99218.50;;;20.14;66.73
39267;BME280;24967;51.154;13.812;2023-06-19T05:10:11;99220.09;;;20.22;66.50
39267;BME280;24967;51.154;13.812;2023-06-19T05:12:38;99218.84;;;20.25;66.55
39267;BME280;24967;51.154;13.812;2023-06-19T05:15:05;99221.22;;;20.33;66.39
39267;BME280;24967;51.154;13.812;2023-06-19T05:17:32;99226.97;;;20.43;65.95
39267;BME280;24967;51.154;13.812;2023-06-19T05:19:58;99235.06;;;20.43;65.74
39267;BME280;24967;51.154;13.812;2023-06-19T05:22:26;99229.81;;;20.48;66.14
39267;BME280;24967;51.154;13.812;2023-06-19T05:24:52;99231.25;;;20.57;66.05
39267;BME280;24967;51.154;13.812;2023-06-19T05:27:19;99224.78;;;20.58;65.78
39267;BME280;24967;51.154;13.812;2023-06-19T05:29:45;99236.31;;;20.66;65.47
39267;BME280;24967;51.154;13.812;2023-06-19T05:32:12;99232.34;;;20.68;65.07
39267;BME280;24967;51.154;13.812;2023-06-19T05:34:39;99235.97;;;20.80;64.82
39267;BME280;24967;51.154;13.812;2023-06-19T05:37:05;99240.25;;;20.88;64.60
39267;BME280;24967;51.154;13.812;2023-06-19T05:39:33;99233.50;;;20.97;64.32
39267;BME280;24967;51.154;13.812;2023-06-19T05:42:00;99238.31;;;20.95;64.15
39267;BME280;24967;51.154;13.812;2023-06-19T05:44:27;99233.41;;;21.04;64.10
39267;BME280;24967;51.154;13.812;2023-06-19T05:46:53;99236.56;;;21.01;64.57
39267;BME280;24967;51.154;13.812;2023-06-19T05:49:20;99232.69;;;20.97;64.75
39267;BME280;24967;51.154;13.812;2023-06-19T05:51:46;99237.25;;;20.96;65.02
39267;BME280;24967;51.154;13.812;2023-06-19T05:54:13;99229.38;;;20.95;64.39
39267;BME280;24967;51.154;13.812;2023-06-19T05:56:41;99236.06;;;20.92;64.77
39267;BME280;24967;51.154;13.812;2023-06-19T05:59:07;99227.66;;;21.00;64.52
39267;BME280;24967;51.154;13.812;2023-06-19T06:01:34;99228.31;;;20.96;63.81
39267;BME280;24967;51.154;13.812;2023-06-19T06:04:00;99229.91;;;21.03;63.86
39267;BME280;24967;51.154;13.812;2023-06-19T06:06:28;99234.94;;;21.30;63.42
39267;BME280;24967;51.154;13.812;2023-06-19T06:08:54;99235.81;;;21.49;62.85
39267;BME280;24967;51.154;13.812;2023-06-19T06:11:22;99230.75;;;21.53;62.68
39267;BME280;24967;51.154;13.812;2023-06-19T06:13:50;99231.63;;;21.65;62.43
39267;BME280;24967;51.154;13.812;2023-06-19T06:16:17;99240.59;;;21.77;62.08
39267;BME280;24967;51.154;13.812;2023-06-19T06:18:44;99241.88;;;21.75;61.17
39267;BME280;24967;51.154;13.812;2023-06-19T06:21:10;99238.59;;;21.72;60.77
39267;BME280;24967;51.154;13.812;2023-06-19T06:23:38;99234.25;;;21.83;61.26
39267;BME280;24967;51.154;13.812;2023-06-19T06:26:04;99237.44;;;21.80;60.64
39267;BME280;24967;51.154;13.812;2023-06-19T06:28:31;99240.97;;;21.92;60.79
39267;BME280;24967;51.154;13.812;2023-06-19T06:30:59;99246.25;;;21.87;60.28
39267;BME280;24967;51.154;13.812;2023-06-19T06:33:25;99243.69;;;21.92;60.34
39267;BME280;24967;51.154;13.812;2023-06-19T06:35:54;99244.97;;;21.90;59.85
39267;BME280;24967;51.154;13.812;2023-06-19T06:38:21;99250.56;;;22.07;59.73
39267;BME280;24967;51.154;13.812;2023-06-19T06:40:47;99251.38;;;22.07;59.54
39267;BME280;24967;51.154;13.812;2023-06-19T06:43:14;99256.59;;;22.21;58.99
39267;BME280;24967;51.154;13.812;2023-06-19T06:45:40;99260.53;;;22.36;58.43
39267;BME280;24967;51.154;13.812;2023-06-19T06:48:08;99255.94;;;22.37;58.25
39267;BME280;24967;51.154;13.812;2023-06-19T06:50:35;99260.16;;;22.45;57.91
39267;BME280;24967;51.154;13.812;2023-06-19T06:53:01;99264.28;;;22.47;57.43
39267;BME280;24967;51.154;13.812;2023-06-19T06:55:28;99265.94;;;22.48;57.57
39267;BME280;24967;51.154;13.812;2023-06-19T06:57:54;99263.22;;;22.60;57.29
39267;BME280;24967;51.154;13.812;2023-06-19T07:00:21;99268.28;;;22.68;57.10
39267;BME280;24967;51.154;13.812;2023-06-19T07:02:47;99265.47;;;22.75;57.24
39267;BME280;24967;51.154;13.812;2023-06-19T07:05:17;99265.09;;;22.83;56.87
39267;BME280;24967;51.154;13.812;2023-06-19T07:07:43;99270.06;;;22.86;57.05
39267;BME280;24967;51.154;13.812;2023-06-19T07:10:10;99267.22;;;22.93;56.95
39267;BME280;24967;51.154;13.812;2023-06-19T07:12:44;99270.41;;;22.90;56.86
39267;BME280;24967;51.154;13.812;2023-06-19T07:15:10;99271.38;;;22.95;56.02
39267;BME280;24967;51.154;13.812;2023-06-19T07:17:37;99267.72;;;23.01;55.77
39267;BME280;24967;51.154;13.812;2023-06-19T07:20:05;99262.75;;;23.10;55.77
39267;BME280;24967;51.154;13.812;2023-06-19T07:22:33;99272.03;;;23.14;55.92
39267;BME280;24967;51.154;13.812;2023-06-19T07:24:59;99272.34;;;23.29;55.64
39267;BME280;24967;51.154;13.812;2023-06-19T07:27:26;99269.94;;;23.45;55.55
39267;BME280;24967;51.154;13.812;2023-06-19T07:29:54;99273.69;;;23.55;55.84
39267;BME280;24967;51.154;13.812;2023-06-19T07:32:20;99275.91;;;23.59;55.66
39267;BME280;24967;51.154;13.812;2023-06-19T07:34:47;99268.59;;;23.71;55.20
39267;BME280;24967;51.154;13.812;2023-06-19T07:37:13;99264.25;;;23.87;55.30
39267;BME280;24967;51.154;13.812;2023-06-19T07:39:44;99272.66;;;23.85;54.53
39267;BME280;24967;51.154;13.812;2023-06-19T07:42:10;99279.50;;;23.88;54.54
39267;BME280;24967;51.154;13.812;2023-06-19T07:44:37;99272.94;;;24.00;54.20
39267;BME280;24967;51.154;13.812;2023-06-19T07:47:04;99279.28;;;24.06;54.17
39267;BME280;24967;51.154;13.812;2023-06-19T07:49:30;99281.00;;;24.29;54.36
39267;BME280;24967;51.154;13.812;2023-06-19T07:51:57;99272.91;;;24.46;54.01
39267;BME280;24967;51.154;13.812;2023-06-19T07:54:23;99274.03;;;24.67;53.66
39267;BME280;24967;51.154;13.812;2023-06-19T07:56:51;99280.47;;;24.61;53.39
39267;BME280;24967;51.154;13.812;2023-06-19T07:59:17;99279.19;;;24.85;53.50
39267;BME280;24967;51.154;13.812;2023-06-19T08:01:44;99276.59;;;24.96;53.03
39267;BME280;24967;51.154;13.812;2023-06-19T08:04:10;99278.00;;;25.15;52.81
39267;BME280;24967;51.154;13.812;2023-06-19T08:06:37;99281.34;;;25.22;52.65
39267;BME280;24967;51.154;13.812;2023-06-19T08:09:03;99276.72;;;25.23;52.20
39267;BME280;24967;51.154;13.812;2023-06-19T08:11:30;99279.59;;;25.33;51.80
39267;BME280;24967;51.154;13.812;2023-06-19T08:13:58;99283.16;;;25.39;51.68
39267;BME280;24967;51.154;13.812;2023-06-19T08:16:24;99280.25;;;25.23;50.99
39267;BME280;24967;51.154;13.812;2023-06-19T08:18:52;99274.38;;;25.31;51.24
39267;BME280;24967;51.154;13.812;2023-06-19T08:21:18;99283.06;;;25.28;51.39
39267;BME280;24967;51.154;13.812;2023-06-19T08:23:48;99288.75;;;25.49;51.51
39267;BME280;24967;51.154;13.812;2023-06-19T08:26:15;99279.06;;;25.36;51.32
39267;BME280;24967;51.154;13.812;2023-06-19T08:28:41;99286.78;;;25.22;51.36
39267;BME280;24967;51.154;13.812;2023-06-19T08:31:09;99288.78;;;25.10;51.53
39267;BME280;24967;51.154;13.812;2023-06-19T08:33:35;99286.34;;;25.30;52.02
39267;BME280;24967;51.154;13.812;2023-06-19T08:36:02;99287.59;;;25.23;51.11
39267;BME280;24967;51.154;13.812;2023-06-19T08:38:29;99283.31;;;25.10;51.56
39267;BME280;24967;51.154;13.812;2023-06-19T08:40:55;99285.19;;;25.26;52.17
39267;BME280;24967;51.154;13.812;2023-06-19T08:43:22;99286.22;;;25.42;51.75
39267;BME280;24967;51.154;13.812;2023-06-19T08:45:55;99292.88;;;25.51;51.55
39267;BME280;24967;51.154;13.812;2023-06-19T08:48:27;99287.16;;;25.53;51.08
39267;BME280;24967;51.154;13.812;2023-06-19T08:50:55;99288.38;;;25.40;50.74
39267;BME280;24967;51.154;13.812;2023-06-19T08:53:21;99292.09;;;25.56;51.32
39267;BME280;24967;51.154;13.812;2023-06-19T08:55:48;99294.09;;;25.66;51.32
39267;BME280;24967;51.154;13.812;2023-06-19T08:58:21;99293.66;;;25.74;51.37
39267;BME280;24967;51.154;13.812;2023-06-19T09:00:49;99291.09;;;25.84;51.54
39267;BME280;24967;51.154;13.812;2023-06-19T09:03:19;99288.00;;;25.80;51.58
39267;BME280;24967;51.154;13.812;2023-06-19T09:05:47;99287.44;;;25.78;51.65
39267;BME280;24967;51.154;13.812;2023-06-19T09:08:16;99289.31;;;25.78;52.02
39267;BME280;24967;51.154;13.812;2023-06-19T09:10:43;99294.88;;;25.83;52.05
39267;BME280;24967;51.154;13.812;2023-06-19T09:13:09;99302.38;;;25.98;52.27
39267;BME280;24967;51.154;13.812;2023-06-19T09:15:37;99302.44;;;25.81;50.97
39267;BME280;24967;51.154;13.812;2023-06-19T09:18:05;99298.06;;;25.80;51.51
39267;BME280;24967;51.154;13.812;2023-06-19T09:20:33;99309.56;;;25.82;51.13
39267;BME280;24967;51.154;13.812;2023-06-19T09:23:01;99300.97;;;25.95;51.53
39267;BME280;24967;51.154;13.812;2023-06-19T09:25:27;99301.34;;;26.04;51.45
39267;BME280;24967;51.154;13.812;2023-06-19T09:27:54;99300.31;;;26.10;51.40
39267;BME280;24967;51.154;13.812;2023-06-19T09:30:21;99299.28;;;26.16;51.38
39267;BME280;24967;51.154;13.812;2023-06-19T09:32:48;99303.44;;;26.24;51.66
39267;BME280;24967;51.154;13.812;2023-06-19T09:35:14;99293.94;;;26.26;51.50
39267;BME280;24967;51.154;13.812;2023-06-19T09:37:41;99298.38;;;26.38;51.82
39267;BME280;24967;51.154;13.812;2023-06-19T09:40:09;99300.44;;;26.25;51.56
39267;BME280;24967;51.154;13.812;2023-06-19T09:42:38;99299.91;;;26.23;51.82
39267;BME280;24967;51.154;13.812;2023-06-19T09:45:06;99291.72;;;26.23;51.68
39267;BME280;24967;51.154;13.812;2023-06-19T09:47:35;99289.06;;;26.34;51.74
39267;BME280;24967;51.154;13.812;2023-06-19T09:50:03;99292.91;;;26.38;51.55
39267;BME280;24967;51.154;13.812;2023-06-19T09:52:31;99289.44;;;26.47;51.99
39267;BME280;24967;51.154;13.812;2023-06-19T09:55:01;99289.06;;;26.34;50.81
39267;BME280;24967;51.154;13.812;2023-06-19T09:57:37;99284.41;;;26.61;51.69
39267;BME280;24967;51.154;13.812;2023-06-19T10:00:13;99285.50;;;26.65;51.54
39267;BME280;24967;51.154;13.812;2023-06-19T10:02:54;99295.97;;;26.79;51.34
39267;BME280;24967;51.154;13.812;2023-06-19T10:05:40;99292.22;;;26.90;50.76
39267;BME280;24967;51.154;13.812;2023-06-19T10:08:11;99288.47;;;27.01;50.60
39267;BME280;24967;51.154;13.812;2023-06-19T10:10:49;99295.34;;;27.09;50.53
39267;BME280;24967;51.154;13.812;2023-06-19T10:13:18;99287.75;;;27.16;50.66
39267;BME280;24967;51.154;13.812;2023-06-19T10:15:51;99290.25;;;27.17;50.69
39267;BME280;24967;51.154;13.812;2023-06-19T10:18:18;99292.97;;;27.23;50.21
39267;BME280;24967;51.154;13.812;2023-06-19T10:20:46;99287.78;;;27.21;50.12
39267;BME280;24967;51.154;13.812;2023-06-19T10:23:20;99290.53;;;27.26;50.17
39267;BME280;24967;51.154;13.812;2023-06-19T10:25:58;99283.78;;;27.39;50.53
39267;BME280;24967;51.154;13.812;2023-06-19T10:28:33;99279.75;;;26.99;50.29
39267;BME280;24967;51.154;13.812;2023-06-19T10:31:04;99276.13;;;26.88;49.82
39267;BME280;24967;51.154;13.812;2023-06-19T10:33:39;99268.22;;;26.92;50.46
39267;BME280;24967;51.154;13.812;2023-06-19T10:36:16;99270.19;;;26.97;50.10
39267;BME280;24967;51.154;13.812;2023-06-19T10:38:53;99269.91;;;26.98;50.08
39267;BME280;24967;51.154;13.812;2023-06-19T10:41:26;99275.97;;;27.10;49.93
39267;BME280;24967;51.154;13.812;2023-06-19T10:43:58;99272.56;;;27.30;50.10
39267;BME280;24967;51.154;13.812;2023-06-19T10:46:36;99271.47;;;27.36;48.89
39267;BME280;24967;51.154;13.812;2023-06-19T10:49:17;99258.69;;;27.42;48.66
39267;BME280;24967;51.154;13.812;2023-06-19T10:51:44;99247.53;;;27.64;48.92
39267;BME280;24967;51.154;13.812;2023-06-19T10:54:14;99257.38;;;27.70;48.06
39267;BME280;24967;51.154;13.812;2023-06-19T10:56:41;99252.75;;;27.71;49.44
39267;BME280;24967;51.154;13.812;2023-06-19T10:59:10;99259.09;;;27.92;49.40
39267;BME280;24967;51.154;13.812;2023-06-19T11:01:50;99265.38;;;28.07;48.25
39267;BME280;24967;51.154;13.812;2023-06-19T11:04:28;99265.91;;;28.35;48.34
39267;BME280;24967;51.154;13.812;2023-06-19T11:06:58;99265.69;;;28.42;47.61
39267;BME280;24967;51.154;13.812;2023-06-19T11:09:35;99261.28;;;28.66;47.00
39267;BME280;24967;51.154;13.812;2023-06-19T11:12:18;99258.47;;;28.92;47.23
39267;BME280;24967;51.154;13.812;2023-06-19T11:14:49;99263.38;;;29.10;46.97
39267;BME280;24967;51.154;13.812;2023-06-19T11:17:16;99256.56;;;28.97;44.11
39267;BME280;24967;51.154;13.812;2023-06-19T11:19:52;99261.22;;;28.97;44.68
39267;BME280;24967;51.154;13.812;2023-06-19T11:22:33;99261.13;;;29.22;45.12
39267;BME280;24967;51.154;13.812;2023-06-19T11:25:40;99261.44;;;29.16;44.27
39267;BME280;24967;51.154;13.812;2023-06-19T11:28:20;99259.94;;;29.44;45.28
39267;BME280;24967;51.154;13.812;2023-06-19T11:31:00;99259.81;;;29.75;44.87
39267;BME280;24967;51.154;13.812;2023-06-19T11:33:33;99262.03;;;29.67;41.73
39267;BME280;24967;51.154;13.812;2023-06-19T11:36:06;99260.47;;;29.56;43.59
39267;BME280;24967;51.154;13.812;2023-06-19T11:38:42;99254.97;;;29.61;42.81
39267;BME280;24967;51.154;13.812;2023-06-19T11:41:24;99253.56;;;30.08;43.42
39267;BME280;24967;51.154;13.812;2023-06-19T11:43:58;99248.13;;;30.38;42.12
39267;BME280;24967;51.154;13.812;2023-06-19T11:46:31;99241.09;;;30.55;37.54
39267;BME280;24967;51.154;13.812;2023-06-19T11:49:20;99239.56;;;30.44;36.42
39267;BME280;24967;51.154;13.812;2023-06-19T11:51:53;99240.81;;;30.57;36.19
39267;BME280;24967;51.154;13.812;2023-06-19T11:54:20;99234.34;;;30.72;34.21
39267;BME280;24967;51.154;13.812;2023-06-19T11:56:49;99240.47;;;30.64;37.37
39267;BME280;24967;51.154;13.812;2023-06-19T11:59:19;99233.44;;;31.06;38.34
39267;BME280;24967;51.154;13.812;2023-06-19T12:01:47;99234.13;;;31.40;37.07
39267;BME280;24967;51.154;13.812;2023-06-19T12:04:17;99232.94;;;31.46;36.79
39267;BME280;24967;51.154;13.812;2023-06-19T12:06:48;99225.53;;;31.66;35.24
39267;BME280;24967;51.154;13.812;2023-06-19T12:09:22;99227.00;;;31.39;35.69
39267;BME280;24967;51.154;13.812;2023-06-19T12:12:08;99227.81;;;31.16;36.11
39267;BME280;24967;51.154;13.812;2023-06-19T12:14:41;99223.28;;;31.49;35.84
39267;BME280;24967;51.154;13.812;2023-06-19T12:17:18;99221.06;;;31.08;34.87
39267;BME280;24967;51.154;13.812;2023-06-19T12:19:45;99217.69;;;30.92;35.63
39267;BME280;24967;51.154;13.812;2023-06-19T12:22:21;99215.41;;;30.99;35.84
39267;BME280;24967;51.154;13.812;2023-06-19T12:24:53;99219.91;;;31.14;36.51
39267;BME280;24967;51.154;13.812;2023-06-19T12:27:20;99213.66;;;31.09;36.36
39267;BME280;24967;51.154;13.812;2023-06-19T12:29:48;99215.91;;;31.01;34.71
39267;BME280;24967;51.154;13.812;2023-06-19T12:32:23;99218.56;;;31.12;36.96
39267;BME280;24967;51.154;13.812;2023-06-19T12:34:56;99209.94;;;31.42;36.08
39267;BME280;24967;51.154;13.812;2023-06-19T12:37:37;99217.16;;;31.33;34.66
39267;BME280;24967;51.154;13.812;2023-06-19T12:40:11;99214.34;;;30.95;36.90
39267;BME280;24967;51.154;13.812;2023-06-19T12:42:48;99206.13;;;30.95;36.33
39267;BME280;24967;51.154;13.812;2023-06-19T12:45:20;99204.72;;;30.98;35.75
39267;BME280;24967;51.154;13.812;2023-06-19T12:47:50;99205.81;;;30.73;36.38
39267;BME280;24967;51.154;13.812;2023-06-19T12:50:17;99202.84;;;30.69;36.50
39267;BME280;24967;51.154;13.812;2023-06-19T16:27:27;99135.59;;;31.15;41.88
39267;BME280;24967;51.154;13.812;2023-06-19T16:29:53;99135.78;;;31.42;41.89
39267;BME280;24967;51.154;13.812;2023-06-19T16:32:19;99132.31;;;31.32;41.61